createdAt,value
2018-05-02T00:02:09.166Z,57.81
2018-05-02T00:04:36.792Z,60.06
2018-05-02T00:07:04.311Z,57.62
2018-05-02T00:09:31.845Z,58.26
2018-05-02T00:11:59.375Z,58.69
2018-05-02T00:14:26.892Z,58.86
2018-05-02T00:16:54.490Z,57.72
2018-05-02T00:19:22.011Z,60.93
2018-05-02T00:21:49.523Z,58.44
2018-05-02T00:24:17.036Z,57.86
2018-05-02T00:26:44.560Z,57.48
2018-05-02T00:29:12.185Z,57.72
2018-05-02T00:31:39.708Z,58.49
2018-05-02T00:34:07.229Z,57.82
2018-05-02T00:36:34.765Z,58.15
2018-05-02T00:39:02.284Z,58.39
2018-05-02T00:41:29.816Z,62.08
2018-05-02T00:43:57.451Z,61.12
2018-05-02T00:46:25.010Z,58.53
2018-05-02T00:49:04.347Z,58.70
2018-05-02T00:51:31.868Z,58.83
2018-05-02T00:53:59.424Z,59.46
2018-05-02T00:56:26.957Z,58.85
2018-05-02T00:58:54.551Z,59.76
2018-05-02T01:01:22.069Z,59.38
2018-05-02T01:03:49.589Z,58.86
2018-05-02T01:06:17.117Z,59.03
2018-05-02T01:08:44.639Z,59.94
2018-05-02T01:11:12.166Z,58.96
2018-05-02T01:13:39.694Z,60.36
2018-05-02T01:16:07.226Z,59.44
2018-05-02T01:18:34.728Z,62.01
2018-05-02T01:21:02.247Z,61.18
2018-05-02T01:23:29.760Z,60.00
2018-05-02T01:25:57.274Z,59.90
2018-05-02T01:28:24.789Z,63.76
2018-05-02T01:30:52.304Z,63.20
2018-05-02T01:33:19.823Z,59.71
2018-05-02T01:35:47.335Z,60.09
2018-05-02T01:38:14.853Z,61.47
2018-05-02T01:40:42.360Z,60.68
2018-05-02T01:43:09.874Z,60.05
2018-05-02T01:45:37.387Z,63.58
2018-05-02T01:48:04.900Z,64.25
2018-05-02T01:50:32.424Z,63.67
2018-05-02T01:52:59.940Z,63.70
2018-05-02T01:55:27.472Z,61.46
2018-05-02T01:57:55.005Z,63.01
2018-05-02T02:00:22.531Z,62.48
2018-05-02T02:02:50.118Z,63.04
2018-05-02T02:05:17.679Z,61.91
2018-05-02T02:07:45.196Z,63.51
2018-05-02T02:10:12.719Z,61.03
2018-05-02T02:12:40.247Z,61.36
2018-05-02T02:15:07.755Z,61.00
2018-05-02T02:17:35.265Z,61.06
2018-05-02T02:20:02.777Z,64.04
2018-05-02T02:22:30.297Z,61.94
2018-05-02T02:24:57.820Z,62.18
2018-05-02T02:27:25.340Z,61.99
2018-05-02T02:29:52.885Z,62.90
2018-05-02T02:32:20.434Z,61.35
2018-05-02T02:34:47.964Z,62.66
2018-05-02T02:37:15.549Z,63.28
2018-05-02T02:39:43.074Z,61.63
2018-05-02T02:42:10.659Z,62.33
2018-05-02T02:44:38.167Z,63.27
2018-05-02T02:47:05.676Z,64.43
2018-05-02T02:49:33.234Z,62.31
2018-05-02T02:52:00.802Z,64.03
2018-05-02T02:54:28.321Z,64.21
2018-05-02T02:56:55.851Z,65.70
2018-05-02T02:59:23.512Z,65.87
2018-05-02T03:01:51.120Z,65.71
2018-05-02T03:04:18.709Z,66.03
2018-05-02T03:06:46.276Z,66.37
2018-05-02T03:09:13.830Z,62.99
2018-05-02T03:11:41.361Z,65.49
2018-05-02T03:14:08.955Z,63.29
2018-05-02T03:16:36.481Z,63.37
2018-05-02T03:19:04.074Z,66.35
2018-05-02T03:21:31.598Z,65.87
2018-05-02T03:23:59.124Z,65.79
2018-05-02T03:26:26.756Z,64.27
2018-05-02T03:28:54.268Z,66.77
2018-05-02T03:31:21.791Z,63.56
2018-05-02T03:33:49.429Z,66.90
2018-05-02T03:36:16.948Z,63.53
2018-05-02T03:38:44.466Z,66.75
2018-05-02T03:41:11.976Z,63.84
2018-05-02T03:43:39.690Z,66.17
2018-05-02T03:46:07.218Z,67.48
2018-05-02T03:48:34.790Z,68.08
2018-05-02T03:51:02.354Z,64.92
2018-05-02T03:53:29.879Z,68.33
2018-05-02T03:55:57.474Z,68.31
2018-05-02T03:58:25.003Z,68.85
2018-05-02T04:01:04.376Z,66.46
2018-05-02T04:03:43.708Z,66.38
2018-05-02T04:06:23.089Z,65.52
2018-05-02T04:08:51.446Z,65.25
2018-05-02T04:11:18.964Z,67.25
2018-05-02T04:13:46.479Z,68.56
2018-05-02T04:16:14.102Z,68.16
2018-05-02T04:18:41.691Z,66.51
2018-05-02T04:21:09.163Z,68.49
2018-05-02T04:23:36.675Z,67.30
2018-05-02T04:26:04.257Z,68.16
2018-05-02T04:28:31.756Z,66.02
2018-05-02T04:30:59.268Z,66.13
2018-05-02T04:33:26.776Z,68.45
2018-05-02T04:35:54.288Z,68.72
2018-05-02T04:38:21.808Z,68.08
2018-05-02T04:40:49.320Z,66.99
2018-05-02T04:43:16.835Z,67.38
2018-05-02T04:45:44.414Z,67.49
2018-05-02T04:48:11.931Z,67.46
2018-05-02T04:50:39.472Z,67.70
2018-05-02T04:53:07.019Z,66.99
2018-05-02T04:55:34.549Z,67.51
2018-05-02T04:58:02.068Z,65.76
2018-05-02T05:00:29.673Z,66.01
2018-05-02T05:02:57.200Z,66.58
2018-05-02T05:05:24.722Z,65.98
2018-05-02T05:07:52.246Z,65.56
2018-05-02T05:10:19.773Z,65.29
2018-05-02T05:12:47.297Z,64.40
2018-05-02T05:15:14.933Z,64.19
2018-05-02T05:17:42.458Z,63.76
2018-05-02T05:20:09.980Z,62.91
2018-05-02T05:22:37.604Z,62.24
2018-05-02T05:25:05.164Z,62.04
2018-05-02T05:27:32.697Z,62.06
2018-05-02T05:30:00.291Z,61.78
2018-05-02T05:32:27.817Z,61.38
2018-05-02T05:34:55.342Z,59.21
2018-05-02T05:37:22.969Z,58.15
2018-05-02T05:39:50.532Z,56.88
2018-05-02T05:42:18.062Z,57.72
2018-05-02T05:44:45.649Z,58.10
2018-05-02T05:47:13.177Z,58.09
2018-05-02T05:49:40.724Z,57.86
2018-05-02T05:52:08.336Z,54.79
2018-05-02T05:54:35.867Z,56.56
2018-05-02T05:57:03.385Z,52.77
2018-05-02T05:59:30.993Z,53.64
2018-05-02T06:01:58.518Z,53.99
2018-05-02T06:04:26.073Z,52.97
2018-05-02T06:06:53.691Z,53.56
2018-05-02T06:09:21.255Z,50.80
2018-05-02T06:11:48.780Z,53.77
2018-05-02T06:14:16.299Z,50.85
2018-05-02T06:16:43.831Z,52.24
2018-05-02T06:19:11.361Z,53.54
2018-05-02T06:21:38.951Z,49.83
2018-05-02T06:24:06.511Z,52.17
2018-05-02T06:26:34.025Z,52.28
2018-05-02T06:29:01.558Z,53.02
2018-05-02T06:31:29.082Z,51.69
2018-05-02T06:33:56.613Z,51.81
2018-05-02T06:36:24.137Z,50.33
2018-05-02T06:38:51.769Z,49.22
2018-05-02T06:41:19.292Z,47.57
2018-05-02T06:43:46.812Z,47.05
2018-05-02T06:46:14.345Z,46.61
2018-05-02T06:48:41.900Z,48.39
2018-05-02T06:51:09.437Z,48.19
2018-05-02T06:53:36.976Z,49.22
2018-05-02T06:56:04.506Z,45.48
2018-05-02T06:58:32.037Z,46.75
2018-05-02T07:00:59.570Z,45.11
2018-05-02T07:03:27.163Z,47.87
2018-05-02T07:05:54.690Z,47.00
2018-05-02T07:08:22.208Z,44.43
2018-05-02T07:10:49.722Z,44.17
2018-05-02T07:13:17.271Z,44.60
2018-05-02T07:15:44.813Z,48.30
2018-05-02T07:18:12.372Z,47.86
2018-05-02T07:20:39.988Z,45.36
2018-05-02T07:23:07.535Z,44.69
2018-05-02T07:25:35.052Z,46.70
2018-05-02T07:28:02.585Z,45.77
2018-05-02T07:30:30.118Z,44.24
2018-05-02T07:32:57.758Z,44.37
2018-05-02T07:35:25.189Z,42.47
2018-05-02T07:37:52.743Z,42.57
2018-05-02T07:40:20.278Z,42.24
2018-05-02T07:42:47.811Z,42.61
2018-05-02T07:45:15.343Z,43.74
2018-05-02T07:47:42.880Z,42.06
2018-05-02T07:50:10.419Z,40.42
2018-05-02T07:52:37.948Z,44.92
2018-05-02T07:55:05.480Z,42.94
2018-05-02T07:57:33.008Z,39.55
2018-05-02T08:00:00.532Z,41.61
2018-05-02T08:02:28.064Z,39.12
2018-05-02T08:04:55.600Z,37.75
2018-05-02T08:07:23.137Z,38.40
2018-05-02T08:09:50.669Z,38.33
2018-05-02T08:12:18.189Z,37.84
2018-05-02T08:14:45.711Z,38.79
2018-05-02T08:17:13.246Z,40.05
2018-05-02T08:19:40.772Z,38.91
2018-05-02T08:22:08.296Z,37.73
2018-05-02T08:24:35.819Z,38.45
2018-05-02T08:27:03.352Z,38.37
2018-05-02T08:29:30.880Z,37.85
2018-05-02T08:31:58.408Z,36.75
2018-05-02T08:34:25.934Z,37.92
2018-05-02T08:36:53.453Z,36.02
2018-05-02T08:39:20.967Z,35.98
2018-05-02T08:41:48.476Z,38.49
2018-05-02T08:44:15.995Z,34.88
2018-05-02T08:46:43.511Z,36.54
2018-05-02T08:49:11.044Z,35.55
2018-05-02T08:51:38.577Z,34.67
2018-05-02T08:54:06.101Z,37.10
2018-05-02T08:56:33.618Z,37.05
2018-05-02T08:59:01.151Z,37.86
2018-05-02T09:01:28.668Z,35.13
2018-05-02T09:03:56.192Z,37.64
2018-05-02T09:06:23.724Z,37.70
2018-05-02T09:08:51.284Z,38.10
2018-05-02T09:11:18.782Z,38.45
2018-05-02T09:13:46.311Z,37.71
2018-05-02T09:16:13.833Z,38.69
2018-05-02T09:18:41.352Z,38.89
2018-05-02T09:21:08.913Z,37.76
2018-05-02T09:23:36.443Z,38.63
2018-05-02T09:26:03.963Z,39.30
2018-05-02T09:28:31.483Z,39.23
2018-05-02T09:30:59.005Z,39.03
2018-05-02T09:33:26.516Z,39.11
2018-05-02T09:35:54.035Z,38.86
2018-05-02T09:38:21.635Z,39.23
2018-05-02T09:40:49.127Z,38.71
2018-05-02T09:43:16.649Z,39.65
2018-05-02T09:45:44.167Z,39.92
2018-05-02T09:48:11.711Z,39.70
2018-05-02T09:50:39.229Z,40.06
2018-05-02T09:53:06.749Z,40.68
2018-05-02T09:55:34.274Z,40.56
2018-05-02T09:58:01.801Z,40.81
2018-05-02T10:00:30.253Z,41.14
2018-05-02T10:02:57.772Z,40.85
2018-05-02T10:05:25.292Z,41.74
2018-05-02T10:07:52.815Z,42.09
2018-05-02T10:10:20.328Z,41.43
2018-05-02T10:12:47.948Z,41.44
2018-05-02T10:15:15.415Z,42.03
2018-05-02T10:17:42.932Z,42.45
2018-05-02T10:20:10.462Z,42.49
2018-05-02T10:22:37.985Z,43.02
2018-05-02T10:25:05.499Z,43.10
2018-05-02T10:27:33.029Z,42.83
2018-05-02T10:30:00.560Z,43.36
2018-05-02T10:32:28.097Z,42.89
2018-05-02T10:34:55.607Z,43.02
2018-05-02T10:37:23.130Z,42.87
2018-05-02T10:39:50.654Z,42.50
2018-05-02T10:42:18.179Z,42.92
2018-05-02T10:44:45.691Z,42.54
2018-05-02T10:47:13.217Z,43.34
2018-05-02T10:49:40.744Z,43.16
2018-05-02T10:52:08.269Z,42.99
2018-05-02T10:54:35.784Z,42.92
2018-05-02T10:57:03.317Z,42.44
2018-05-02T10:59:30.900Z,43.29
2018-05-02T11:01:58.406Z,43.87
2018-05-02T11:04:25.920Z,43.50
2018-05-02T11:06:53.450Z,43.80
2018-05-02T11:09:20.986Z,43.60
2018-05-02T11:11:48.505Z,43.74
2018-05-02T11:14:16.036Z,43.26
2018-05-02T11:16:43.621Z,43.19
2018-05-02T11:19:11.152Z,43.44
2018-05-02T11:21:38.662Z,43.06
2018-05-02T11:24:06.198Z,42.97
2018-05-02T11:26:33.749Z,42.52
2018-05-02T11:29:01.255Z,42.97
2018-05-02T11:31:28.771Z,42.34
2018-05-02T11:33:56.306Z,41.80
2018-05-02T11:36:23.837Z,41.96
2018-05-02T11:38:51.347Z,41.47
2018-05-02T11:41:18.957Z,41.50
2018-05-02T11:43:46.481Z,42.47
2018-05-02T11:46:14.100Z,42.26
2018-05-02T11:48:41.616Z,42.42
2018-05-02T11:51:09.148Z,42.84
2018-05-02T11:53:36.688Z,42.37
2018-05-02T11:56:04.207Z,42.50
2018-05-02T11:58:31.731Z,42.92
2018-05-02T12:00:59.276Z,43.49
2018-05-02T12:03:26.903Z,42.88
2018-05-02T12:05:54.377Z,42.76
2018-05-02T12:08:21.910Z,43.34
2018-05-02T12:10:49.442Z,43.81
2018-05-02T12:13:17.028Z,44.04
2018-05-02T12:15:44.553Z,44.34
2018-05-02T12:18:12.080Z,45.00
2018-05-02T12:20:39.605Z,45.81
2018-05-02T12:23:07.128Z,44.38
2018-05-02T12:25:34.653Z,45.58
2018-05-02T12:28:02.186Z,45.82
2018-05-02T12:30:29.704Z,46.00
2018-05-02T12:32:57.236Z,45.79
2018-05-02T12:35:24.839Z,45.42
2018-05-02T12:37:52.303Z,46.37
2018-05-02T12:40:19.836Z,46.78
2018-05-02T12:42:47.354Z,45.55
2018-05-02T12:45:14.863Z,47.09
2018-05-02T12:47:42.375Z,47.46
2018-05-02T12:50:09.883Z,47.23
2018-05-02T12:52:37.421Z,48.32
2018-05-02T12:55:04.949Z,48.55
2018-05-02T12:57:32.463Z,48.59
2018-05-02T12:59:59.972Z,49.20
2018-05-02T13:02:27.527Z,48.66
2018-05-02T13:04:55.025Z,49.07
2018-05-02T13:07:22.550Z,48.24
2018-05-02T13:09:50.080Z,49.52
2018-05-02T13:12:17.612Z,49.86
2018-05-02T13:14:45.137Z,49.47
2018-05-02T13:17:12.668Z,49.35
2018-05-02T13:19:40.194Z,48.69
2018-05-02T13:22:07.750Z,50.01
2018-05-02T13:24:35.278Z,50.24
2018-05-02T13:27:02.803Z,50.16
2018-05-02T13:29:30.323Z,50.31
2018-05-02T13:31:57.880Z,48.78
2018-05-02T13:34:25.417Z,49.29
2018-05-02T13:36:52.939Z,49.67
2018-05-02T13:39:20.463Z,49.22
2018-05-02T13:41:48.023Z,49.00
2018-05-02T13:44:15.597Z,48.63
2018-05-02T13:46:43.161Z,47.73
2018-05-02T13:49:10.759Z,47.53
2018-05-02T13:51:38.301Z,47.65
2018-05-02T13:54:05.828Z,46.90
2018-05-02T13:56:33.480Z,46.47
2018-05-02T13:59:01.038Z,46.11
2018-05-02T14:01:28.576Z,46.31
2018-05-02T14:03:56.105Z,45.72
2018-05-02T14:06:23.698Z,44.83
2018-05-02T14:08:51.326Z,44.50
2018-05-02T14:11:18.896Z,44.38
2018-05-02T14:13:46.450Z,43.99
2018-05-02T14:16:13.996Z,43.72
2018-05-02T14:18:41.521Z,44.07
2018-05-02T14:21:09.041Z,44.78
2018-05-02T14:23:36.557Z,44.14
2018-05-02T14:26:04.075Z,44.73
2018-05-02T14:28:31.629Z,44.11
2018-05-02T14:30:59.234Z,44.42
2018-05-02T14:33:26.807Z,44.44
2018-05-02T14:35:54.353Z,43.97
2018-05-02T14:38:22.101Z,43.84
2018-05-02T14:40:49.598Z,44.37
2018-05-02T14:43:17.150Z,44.28
2018-05-02T14:45:44.680Z,44.54
2018-05-02T14:48:12.203Z,44.70
2018-05-02T14:50:39.733Z,44.79
2018-05-02T14:53:07.258Z,44.97
2018-05-02T14:55:35.700Z,45.12
2018-05-02T14:58:03.228Z,44.72
2018-05-02T15:00:30.758Z,44.76
2018-05-02T15:02:58.485Z,45.18
2018-05-02T15:05:26.059Z,44.80
2018-05-02T15:07:53.602Z,44.75
2018-05-02T15:10:21.154Z,44.73
2018-05-02T15:12:48.679Z,44.44
2018-05-02T15:15:16.193Z,44.72
2018-05-02T15:17:43.715Z,44.56
2018-05-02T15:20:11.288Z,45.00
2018-05-02T15:22:38.794Z,44.81
2018-05-02T15:25:06.317Z,45.36
2018-05-02T15:27:33.833Z,45.52
2018-05-02T15:30:01.377Z,45.22
2018-05-02T15:32:28.985Z,45.47
2018-05-02T15:34:56.455Z,45.76
2018-05-02T15:37:23.971Z,45.42
2018-05-02T15:39:51.486Z,45.66
2018-05-02T15:42:19.026Z,45.86
2018-05-02T15:44:46.543Z,45.77
2018-05-02T15:47:14.063Z,45.76
2018-05-02T15:49:41.585Z,46.10
2018-05-02T15:52:09.115Z,45.77
2018-05-02T15:54:36.650Z,45.85
2018-05-02T15:57:04.171Z,45.55
2018-05-02T15:59:31.692Z,45.60
2018-05-02T16:01:59.333Z,45.78
2018-05-02T16:04:26.860Z,46.61
2018-05-02T16:06:54.377Z,48.16
2018-05-02T16:09:21.906Z,47.70
2018-05-02T16:11:49.429Z,47.26
2018-05-02T16:14:16.947Z,46.16
2018-05-02T16:16:44.486Z,47.36
2018-05-02T16:19:12.010Z,47.90
2018-05-02T16:21:39.532Z,47.39
2018-05-02T16:24:07.073Z,47.51
2018-05-02T16:26:34.584Z,47.73
2018-05-02T16:29:02.104Z,47.63
2018-05-02T16:31:29.622Z,47.48
2018-05-02T16:33:57.144Z,47.65
2018-05-02T16:36:24.675Z,47.85
2018-05-02T16:38:52.197Z,47.87
2018-05-02T16:41:19.704Z,47.92
2018-05-02T16:43:47.233Z,47.84
2018-05-02T16:46:14.746Z,47.16
2018-05-02T16:48:42.280Z,47.82
2018-05-02T16:51:09.813Z,48.47
2018-05-02T16:53:37.338Z,48.53
2018-05-02T16:56:04.855Z,48.15
2018-05-02T16:58:32.388Z,48.76
2018-05-02T17:00:59.935Z,48.50
2018-05-02T17:03:27.455Z,48.23
2018-05-02T17:05:54.975Z,48.55
2018-05-02T17:08:22.521Z,48.08
2018-05-02T17:10:50.044Z,48.71
2018-05-02T17:13:17.570Z,48.03
2018-05-02T17:15:45.088Z,48.75
2018-05-02T17:18:12.647Z,48.81
2018-05-02T17:20:40.160Z,48.97
2018-05-02T17:23:07.680Z,48.88
2018-05-02T17:25:35.199Z,49.56
2018-05-02T17:28:02.729Z,49.43
2018-05-02T17:30:30.261Z,49.50
2018-05-02T17:32:57.788Z,49.62
2018-05-02T17:35:25.310Z,49.73
2018-05-02T17:37:52.836Z,49.77
2018-05-02T17:40:20.351Z,48.60
2018-05-02T17:42:47.869Z,49.60
2018-05-02T17:45:15.382Z,48.42
2018-05-02T17:47:42.900Z,49.93
2018-05-02T17:50:10.431Z,50.00
2018-05-02T17:52:37.953Z,49.94
2018-05-02T17:55:05.484Z,50.01
2018-05-02T17:57:32.995Z,50.27
2018-05-02T18:00:00.520Z,50.25
2018-05-02T18:02:28.042Z,49.88
2018-05-02T18:04:55.569Z,50.00
2018-05-02T18:07:23.080Z,50.19
2018-05-02T18:09:50.602Z,49.83
2018-05-02T18:12:18.130Z,50.14
2018-05-02T18:14:45.647Z,50.63
2018-05-02T18:17:13.168Z,50.19
2018-05-02T18:19:40.675Z,50.67
2018-05-02T18:22:08.186Z,49.88
2018-05-02T18:24:35.721Z,50.39
2018-05-02T18:27:03.242Z,50.22
2018-05-02T18:29:30.763Z,50.74
2018-05-02T18:31:58.279Z,50.04
2018-05-02T18:34:25.800Z,50.38
2018-05-02T18:36:53.324Z,50.71
2018-05-02T18:39:20.844Z,50.99
2018-05-02T18:41:48.428Z,50.80
2018-05-02T18:44:15.982Z,51.03
2018-05-02T18:46:43.561Z,51.23
2018-05-02T18:49:11.089Z,51.17
2018-05-02T18:51:38.606Z,51.13
2018-05-02T18:54:06.130Z,51.36
2018-05-02T18:56:33.652Z,51.22
2018-05-02T18:59:01.294Z,51.55
2018-05-02T19:01:28.826Z,51.52
2018-05-02T19:03:56.386Z,51.50
2018-05-02T19:06:23.890Z,51.76
2018-05-02T19:08:51.501Z,51.75
2018-05-02T19:11:19.017Z,51.56
2018-05-02T19:13:52.064Z,51.53
2018-05-02T19:16:19.593Z,51.27
2018-05-02T19:18:52.826Z,51.19
2018-05-02T19:21:20.356Z,50.91
2018-05-02T19:23:47.897Z,51.93
2018-05-02T19:26:21.147Z,52.36
2018-05-02T19:28:48.668Z,51.00
2018-05-02T19:31:21.716Z,51.93
2018-05-02T19:33:53.063Z,52.06
2018-05-02T19:36:20.597Z,52.04
2018-05-02T19:38:48.125Z,52.34
2018-05-02T19:41:21.272Z,52.51
2018-05-02T19:43:54.354Z,52.12
2018-05-02T19:46:21.864Z,51.81
2018-05-02T19:48:49.440Z,51.98
2018-05-02T19:51:22.596Z,52.28
2018-05-02T19:53:50.077Z,52.41
2018-05-02T19:56:17.591Z,52.36
2018-05-02T19:58:45.128Z,51.68
2018-05-02T20:01:18.272Z,52.67
2018-05-02T20:03:45.801Z,52.11
2018-05-02T20:06:13.335Z,51.65
2018-05-02T20:08:46.449Z,52.00
2018-05-02T20:11:19.727Z,51.36
2018-05-02T20:13:52.929Z,51.48
2018-05-02T20:16:20.456Z,51.93
2018-05-02T20:18:47.973Z,51.63
2018-05-02T20:21:15.491Z,52.44
2018-05-02T20:23:43.018Z,51.18
2018-05-02T20:26:10.536Z,52.15
2018-05-02T20:28:38.064Z,51.19
2018-05-02T20:31:05.593Z,51.36
2018-05-02T20:33:33.113Z,51.90
2018-05-02T20:36:00.639Z,52.07
2018-05-02T20:38:28.174Z,52.51
2018-05-02T20:40:55.688Z,53.15
2018-05-02T20:43:23.221Z,52.39
2018-05-02T20:45:50.755Z,52.59
2018-05-02T20:48:18.283Z,51.84
2018-05-02T20:50:45.797Z,52.54
2018-05-02T20:53:13.329Z,51.58
2018-05-02T20:55:40.850Z,51.93
2018-05-02T20:58:08.363Z,53.71
2018-05-02T21:00:35.887Z,53.29
2018-05-02T21:03:03.420Z,52.77
2018-05-02T21:05:30.935Z,52.96
2018-05-02T21:07:58.465Z,51.83
2018-05-02T21:10:25.992Z,53.73
2018-05-02T21:12:53.504Z,52.06
2018-05-02T21:15:21.024Z,52.29
2018-05-02T21:17:48.536Z,52.43
2018-05-02T21:20:16.052Z,52.46
2018-05-02T21:22:43.675Z,53.03
2018-05-02T21:25:11.191Z,53.06
2018-05-02T21:27:38.713Z,52.59
2018-05-02T21:30:06.251Z,53.42
2018-05-02T21:32:33.782Z,53.61
2018-05-02T21:35:01.301Z,53.18
2018-05-02T21:37:28.835Z,52.84
2018-05-02T21:39:56.363Z,53.19
2018-05-02T21:42:23.914Z,52.63
2018-05-02T21:44:51.429Z,53.32
2018-05-02T21:47:18.964Z,53.83
2018-05-02T21:49:46.499Z,52.80
2018-05-02T21:52:14.024Z,53.73
2018-05-02T21:54:41.544Z,52.98
2018-05-02T21:57:09.064Z,53.10
2018-05-02T21:59:36.584Z,54.37
2018-05-02T22:02:04.104Z,53.15
2018-05-02T22:04:31.679Z,52.99
2018-05-02T22:06:59.221Z,53.40
2018-05-02T22:09:26.741Z,54.71
2018-05-02T22:11:54.261Z,53.65
2018-05-02T22:14:21.797Z,54.02
2018-05-02T22:16:49.319Z,53.61
2018-05-02T22:19:16.849Z,54.55
2018-05-02T22:21:44.409Z,54.31
2018-05-02T22:24:11.927Z,54.68
2018-05-02T22:26:39.448Z,54.98
2018-05-02T22:29:06.979Z,54.78
2018-05-02T22:31:34.500Z,53.79
2018-05-02T22:34:02.032Z,55.21
2018-05-02T22:36:29.577Z,54.60
2018-05-02T22:38:57.100Z,54.54
2018-05-02T22:41:24.624Z,54.81
2018-05-02T22:43:52.148Z,55.19
2018-05-02T22:46:19.656Z,54.86
2018-05-02T22:48:47.205Z,55.62
2018-05-02T22:51:14.732Z,55.14
2018-05-02T22:53:42.296Z,55.51
2018-05-02T22:56:09.807Z,56.22
2018-05-02T22:58:37.331Z,55.29
2018-05-02T23:01:04.863Z,54.23
2018-05-02T23:03:32.384Z,55.54
2018-05-02T23:05:59.942Z,56.78
2018-05-02T23:08:27.452Z,56.95
2018-05-02T23:10:54.963Z,56.53
2018-05-02T23:13:22.483Z,55.95
2018-05-02T23:15:50.021Z,57.19
2018-05-02T23:18:17.633Z,56.99
2018-05-02T23:20:45.086Z,56.93
2018-05-02T23:23:12.607Z,56.80
2018-05-02T23:25:40.119Z,56.49
2018-05-02T23:28:07.633Z,57.66
2018-05-02T23:30:35.155Z,57.05
2018-05-02T23:33:02.678Z,56.82
2018-05-02T23:35:30.200Z,56.81
2018-05-02T23:37:57.728Z,56.78
2018-05-02T23:40:25.242Z,56.84
2018-05-02T23:42:52.756Z,56.34
2018-05-02T23:45:20.287Z,56.74
2018-05-02T23:47:47.796Z,56.16
2018-05-02T23:50:15.324Z,57.70
2018-05-02T23:52:42.849Z,56.56
2018-05-02T23:55:10.372Z,58.45
2018-05-02T23:57:37.904Z,57.68
